Saxapahaw, North Carolina
Current Conditions -  °F | °C
As of 2:54 PM on Thursday 29 Jan 2015 (Local Time) from KBUY Reporting Station
Broken Clouds Broken Clouds  
Wind Chill: 45°   Ceiling: 11000
Heat Index: 47°   Visibility: 10mi
Dew Point: 17°   Wind: 5mph
Humidity: 30%   Direction: NA
Pressure: 30.14"   Gusts: NA
Location:  35.95°N, 79.32°W
Report Text: KBUY 291954Z AUTO VRB04KT 10SM FEW070 SCT090 BKN110 08/M08 A3014 RMK AO2 SLP209 T00831083
Loading
Personal Weather Stations






























Interactive Weather Map New forecast layout! Learn more

10-Day Weather Forecast

Advertisements
Track Severe Weather on mobile